sensor_id;sensor_type;location;lat;lon;timestamp;pressure;altitude;pressure_sealevel;temperature;humidity
12789;BME280;6458;42.710;23.192;2024-02-23T00:02:16;93560.19;;;8.01;94.94
12789;BME280;6458;42.710;23.192;2024-02-23T00:04:43;93557.63;;;8.01;97.18
12789;BME280;6458;42.710;23.192;2024-02-23T00:07:11;93552.78;;;8.14;97.30
12789;BME280;6458;42.710;23.192;2024-02-23T00:09:38;93554.53;;;8.13;96.87
12789;BME280;6458;42.710;23.192;2024-02-23T00:12:07;93535.44;;;8.16;96.60
12789;BME280;6458;42.710;23.192;2024-02-23T00:14:34;93553.34;;;8.21;95.51
12789;BME280;6458;42.710;23.192;2024-02-23T00:17:03;93539.38;;;8.25;94.83
12789;BME280;6458;42.710;23.192;2024-02-23T00:19:30;93549.34;;;8.34;94.14
12789;BME280;6458;42.710;23.192;2024-02-23T00:21:58;93543.25;;;8.35;93.75
12789;BME280;6458;42.710;23.192;2024-02-23T00:24:26;93539.84;;;8.34;93.93
12789;BME280;6458;42.710;23.192;2024-02-23T00:26:53;93535.63;;;8.32;94.08
12789;BME280;6458;42.710;23.192;2024-02-23T00:29:22;93527.97;;;8.30;94.00
12789;BME280;6458;42.710;23.192;2024-02-23T00:31:49;93544.88;;;8.38;93.01
12789;BME280;6458;42.710;23.192;2024-02-23T00:34:16;93540.75;;;8.33;93.11
12789;BME280;6458;42.710;23.192;2024-02-23T00:36:43;93518.31;;;8.34;93.68
12789;BME280;6458;42.710;23.192;2024-02-23T00:39:11;93529.72;;;8.30;93.36
12789;BME280;6458;42.710;23.192;2024-02-23T00:41:38;93501.41;;;8.27;93.59
12789;BME280;6458;42.710;23.192;2024-02-23T00:44:05;93519.56;;;8.25;93.51
12789;BME280;6458;42.710;23.192;2024-02-23T00:46:33;93514.19;;;8.30;93.58
12789;BME280;6458;42.710;23.192;2024-02-23T00:49:00;93516.25;;;8.22;91.81
12789;BME280;6458;42.710;23.192;2024-02-23T00:51:30;93529.97;;;8.03;83.59
12789;BME280;6458;42.710;23.192;2024-02-23T00:53:57;93525.59;;;7.85;82.25
12789;BME280;6458;42.710;23.192;2024-02-23T00:56:25;93525.22;;;7.72;83.14
12789;BME280;6458;42.710;23.192;2024-02-23T00:58:53;93515.81;;;7.71;83.39
12789;BME280;6458;42.710;23.192;2024-02-23T01:01:22;93527.06;;;7.70;83.29
12789;BME280;6458;42.710;23.192;2024-02-23T01:03:50;93515.59;;;7.55;81.63
12789;BME280;6458;42.710;23.192;2024-02-23T01:06:17;93517.38;;;7.53;84.54
12789;BME280;6458;42.710;23.192;2024-02-23T01:08:44;93517.28;;;7.56;83.52
12789;BME280;6458;42.710;23.192;2024-02-23T01:11:11;93510.06;;;7.64;83.15
12789;BME280;6458;42.710;23.192;2024-02-23T01:13:38;93516.38;;;7.57;84.39
12789;BME280;6458;42.710;23.192;2024-02-23T01:16:08;93518.00;;;7.60;87.06
12789;BME280;6458;42.710;23.192;2024-02-23T01:18:37;93508.28;;;7.66;87.26
12789;BME280;6458;42.710;23.192;2024-02-23T01:21:05;93506.31;;;7.72;86.96
12789;BME280;6458;42.710;23.192;2024-02-23T01:23:32;93502.53;;;7.80;89.26
12789;BME280;6458;42.710;23.192;2024-02-23T01:25:59;93497.34;;;7.80;89.33
12789;BME280;6458;42.710;23.192;2024-02-23T01:28:26;93502.28;;;7.86;89.73
12789;BME280;6458;42.710;23.192;2024-02-23T01:30:53;93498.03;;;7.85;89.75
12789;BME280;6458;42.710;23.192;2024-02-23T01:33:20;93492.66;;;7.90;90.42
12789;BME280;6458;42.710;23.192;2024-02-23T01:35:47;93485.69;;;7.92;89.98
12789;BME280;6458;42.710;23.192;2024-02-23T01:38:15;93481.66;;;8.05;89.48
12789;BME280;6458;42.710;23.192;2024-02-23T01:40:46;93478.94;;;8.08;88.75
12789;BME280;6458;42.710;23.192;2024-02-23T01:43:13;93477.16;;;8.10;87.10
12789;BME280;6458;42.710;23.192;2024-02-23T01:45:43;93479.88;;;8.07;86.56
12789;BME280;6458;42.710;23.192;2024-02-23T01:48:10;93464.72;;;7.79;85.47
12789;BME280;6458;42.710;23.192;2024-02-23T01:50:37;93482.91;;;7.76;85.11
12789;BME280;6458;42.710;23.192;2024-02-23T01:53:05;93476.84;;;7.57;80.14
12789;BME280;6458;42.710;23.192;2024-02-23T01:55:33;93477.25;;;7.46;82.59
12789;BME280;6458;42.710;23.192;2024-02-23T01:58:01;93472.88;;;7.48;82.10
12789;BME280;6458;42.710;23.192;2024-02-23T02:00:28;93477.16;;;7.27;82.19
12789;BME280;6458;42.710;23.192;2024-02-23T02:02:56;93471.25;;;7.25;82.41
12789;BME280;6458;42.710;23.192;2024-02-23T02:05:24;93487.56;;;7.26;84.76
12789;BME280;6458;42.710;23.192;2024-02-23T02:07:52;93468.63;;;7.47;87.93
12789;BME280;6458;42.710;23.192;2024-02-23T02:10:24;93478.44;;;7.59;86.41
12789;BME280;6458;42.710;23.192;2024-02-23T02:12:53;93471.84;;;7.52;85.90
12789;BME280;6458;42.710;23.192;2024-02-23T02:15:22;93476.19;;;7.52;86.46
12789;BME280;6458;42.710;23.192;2024-02-23T02:17:49;93477.50;;;7.40;86.78
12789;BME280;6458;42.710;23.192;2024-02-23T02:20:17;93474.03;;;7.41;85.38
12789;BME280;6458;42.710;23.192;2024-02-23T02:22:45;93473.13;;;7.42;86.64
12789;BME280;6458;42.710;23.192;2024-02-23T02:25:14;93476.66;;;7.39;87.94
12789;BME280;6458;42.710;23.192;2024-02-23T02:27:41;93462.28;;;7.34;88.02
12789;BME280;6458;42.710;23.192;2024-02-23T02:30:12;93471.63;;;7.36;88.80
12789;BME280;6458;42.710;23.192;2024-02-23T02:32:39;93470.59;;;7.40;90.81
12789;BME280;6458;42.710;23.192;2024-02-23T02:35:07;93484.88;;;7.49;90.53
12789;BME280;6458;42.710;23.192;2024-02-23T02:37:36;93467.53;;;7.53;89.83
12789;BME280;6458;42.710;23.192;2024-02-23T02:40:03;93463.84;;;7.58;88.83
12789;BME280;6458;42.710;23.192;2024-02-23T02:42:32;93472.13;;;7.66;88.52
12789;BME280;6458;42.710;23.192;2024-02-23T02:45:01;93480.44;;;7.73;87.70
12789;BME280;6458;42.710;23.192;2024-02-23T02:47:30;93473.03;;;7.86;86.75
12789;BME280;6458;42.710;23.192;2024-02-23T02:49:57;93478.25;;;7.84;85.95
12789;BME280;6458;42.710;23.192;2024-02-23T02:52:24;93469.81;;;7.60;82.31
12789;BME280;6458;42.710;23.192;2024-02-23T02:54:51;93471.94;;;7.71;84.41
12789;BME280;6458;42.710;23.192;2024-02-23T02:57:18;93472.84;;;7.70;84.61
12789;BME280;6458;42.710;23.192;2024-02-23T02:59:46;93475.78;;;7.61;83.87
12789;BME280;6458;42.710;23.192;2024-02-23T03:02:15;93480.13;;;7.60;82.91
12789;BME280;6458;42.710;23.192;2024-02-23T03:04:48;93477.13;;;7.49;83.08
12789;BME280;6458;42.710;23.192;2024-02-23T03:07:15;93472.09;;;7.46;83.19
12789;BME280;6458;42.710;23.192;2024-02-23T03:09:42;93472.59;;;7.12;82.00
12789;BME280;6458;42.710;23.192;2024-02-23T03:12:10;93484.75;;;6.88;83.35
12789;BME280;6458;42.710;23.192;2024-02-23T03:14:37;93472.63;;;6.90;84.75
12789;BME280;6458;42.710;23.192;2024-02-23T03:17:06;93483.63;;;6.93;85.26
12789;BME280;6458;42.710;23.192;2024-02-23T03:19:33;93483.13;;;6.85;86.48
12789;BME280;6458;42.710;23.192;2024-02-23T03:22:02;93486.19;;;6.95;87.76
12789;BME280;6458;42.710;23.192;2024-02-23T03:24:29;93481.50;;;6.83;85.81
12789;BME280;6458;42.710;23.192;2024-02-23T03:26:55;93487.00;;;6.95;87.51
12789;BME280;6458;42.710;23.192;2024-02-23T03:29:23;93486.59;;;6.84;86.53
12789;BME280;6458;42.710;23.192;2024-02-23T03:31:50;93470.72;;;6.95;89.43
12789;BME280;6458;42.710;23.192;2024-02-23T03:34:17;93475.41;;;6.84;87.25
12789;BME280;6458;42.710;23.192;2024-02-23T03:36:44;93473.72;;;6.84;88.87
12789;BME280;6458;42.710;23.192;2024-02-23T03:39:12;93470.38;;;6.81;87.66
12789;BME280;6458;42.710;23.192;2024-02-23T03:41:39;93474.00;;;6.77;88.75
12789;BME280;6458;42.710;23.192;2024-02-23T03:44:06;93483.47;;;6.76;88.03
12789;BME280;6458;42.710;23.192;2024-02-23T03:46:33;93471.06;;;6.86;88.11
12789;BME280;6458;42.710;23.192;2024-02-23T03:49:00;93471.25;;;7.03;89.63
12789;BME280;6458;42.710;23.192;2024-02-23T03:51:27;93473.09;;;7.22;89.26
12789;BME280;6458;42.710;23.192;2024-02-23T03:53:54;93481.44;;;7.28;88.68
12789;BME280;6458;42.710;23.192;2024-02-23T03:56:23;93479.75;;;7.05;86.48
12789;BME280;6458;42.710;23.192;2024-02-23T03:58:50;93481.13;;;6.92;85.60
12789;BME280;6458;42.710;23.192;2024-02-23T04:01:20;93482.44;;;6.80;86.12
12789;BME280;6458;42.710;23.192;2024-02-23T04:03:47;93482.91;;;6.68;89.90
12789;BME280;6458;42.710;23.192;2024-02-23T04:06:14;93481.25;;;6.89;94.70
12789;BME280;6458;42.710;23.192;2024-02-23T04:08:41;93483.75;;;7.12;96.42
12789;BME280;6458;42.710;23.192;2024-02-23T04:11:07;93471.47;;;7.41;94.19
12789;BME280;6458;42.710;23.192;2024-02-23T04:13:36;93475.09;;;7.57;91.81
12789;BME280;6458;42.710;23.192;2024-02-23T04:16:03;93480.03;;;7.62;90.97
12789;BME280;6458;42.710;23.192;2024-02-23T04:18:30;93475.94;;;7.58;91.85
12789;BME280;6458;42.710;23.192;2024-02-23T04:20:57;93477.78;;;7.54;90.62
12789;BME280;6458;42.710;23.192;2024-02-23T04:23:24;93472.81;;;7.50;90.25
12789;BME280;6458;42.710;23.192;2024-02-23T04:25:51;93478.25;;;7.22;87.42
12789;BME280;6458;42.710;23.192;2024-02-23T04:28:18;93487.44;;;6.85;87.42
12789;BME280;6458;42.710;23.192;2024-02-23T04:30:47;93491.38;;;6.48;89.44
12789;BME280;6458;42.710;23.192;2024-02-23T04:33:14;93484.69;;;6.44;91.01
12789;BME280;6458;42.710;23.192;2024-02-23T04:35:41;93482.81;;;6.24;91.87
12789;BME280;6458;42.710;23.192;2024-02-23T04:38:08;93489.59;;;6.03;93.74
12789;BME280;6458;42.710;23.192;2024-02-23T04:40:35;93490.44;;;6.02;94.84
12789;BME280;6458;42.710;23.192;2024-02-23T04:43:02;93486.41;;;5.95;95.28
12789;BME280;6458;42.710;23.192;2024-02-23T04:45:29;93489.06;;;5.92;97.91
12789;BME280;6458;42.710;23.192;2024-02-23T04:47:57;93491.53;;;5.96;96.44
12789;BME280;6458;42.710;23.192;2024-02-23T04:50:29;93495.47;;;5.80;97.90
12789;BME280;6458;42.710;23.192;2024-02-23T04:52:56;93495.53;;;5.78;98.12
12789;BME280;6458;42.710;23.192;2024-02-23T04:55:23;93495.47;;;5.80;97.72
12789;BME280;6458;42.710;23.192;2024-02-23T04:57:49;93505.25;;;5.70;98.89
12789;BME280;6458;42.710;23.192;2024-02-23T05:00:17;93499.22;;;5.71;100.00
12789;BME280;6458;42.710;23.192;2024-02-23T05:02:45;93502.09;;;5.62;99.49
12789;BME280;6458;42.710;23.192;2024-02-23T05:05:13;93504.25;;;5.49;100.00
12789;BME280;6458;42.710;23.192;2024-02-23T05:07:40;93506.28;;;5.40;100.00
12789;BME280;6458;42.710;23.192;2024-02-23T05:10:08;93515.03;;;5.34;100.00
12789;BME280;6458;42.710;23.192;2024-02-23T05:12:35;93505.56;;;5.34;100.00
12789;BME280;6458;42.710;23.192;2024-02-23T05:15:03;93502.13;;;5.61;100.00
12789;BME280;6458;42.710;23.192;2024-02-23T05:17:30;93516.94;;;5.80;100.00
12789;BME280;6458;42.710;23.192;2024-02-23T05:19:57;93505.53;;;5.88;100.00
12789;BME280;6458;42.710;23.192;2024-02-23T05:22:25;93512.47;;;6.11;100.00
12789;BME280;6458;42.710;23.192;2024-02-23T05:24:52;93509.31;;;6.28;100.00
12789;BME280;6458;42.710;23.192;2024-02-23T05:27:19;93523.06;;;6.26;97.68
12789;BME280;6458;42.710;23.192;2024-02-23T05:29:46;93528.44;;;6.20;97.16
12789;BME280;6458;42.710;23.192;2024-02-23T05:32:14;93522.31;;;5.99;95.82
12789;BME280;6458;42.710;23.192;2024-02-23T05:34:41;93513.09;;;6.17;97.93
12789;BME280;6458;42.710;23.192;2024-02-23T05:37:08;93516.03;;;6.55;97.77
12789;BME280;6458;42.710;23.192;2024-02-23T05:39:36;93517.78;;;6.78;96.00
12789;BME280;6458;42.710;23.192;2024-02-23T05:42:03;93504.59;;;7.08;97.76
12789;BME280;6458;42.710;23.192;2024-02-23T05:44:30;93510.75;;;7.48;97.15
12789;BME280;6458;42.710;23.192;2024-02-23T05:46:57;93502.06;;;7.91;95.76
12789;BME280;6458;42.710;23.192;2024-02-23T05:49:24;93503.47;;;8.19;92.47
12789;BME280;6458;42.710;23.192;2024-02-23T05:51:51;93500.78;;;8.42;89.70
12789;BME280;6458;42.710;23.192;2024-02-23T05:54:18;93511.44;;;8.74;87.42
12789;BME280;6458;42.710;23.192;2024-02-23T05:56:47;93516.31;;;8.99;85.02
12789;BME280;6458;42.710;23.192;2024-02-23T05:59:15;93526.53;;;9.21;83.61
12789;BME280;6458;42.710;23.192;2024-02-23T06:01:42;93524.25;;;9.32;81.92
12789;BME280;6458;42.710;23.192;2024-02-23T06:04:09;93521.97;;;9.62;80.52
12789;BME280;6458;42.710;23.192;2024-02-23T06:06:37;93514.66;;;9.88;78.45
12789;BME280;6458;42.710;23.192;2024-02-23T06:09:04;93506.78;;;9.89;77.54
12789;BME280;6458;42.710;23.192;2024-02-23T06:11:31;93518.53;;;9.79;76.74
12789;BME280;6458;42.710;23.192;2024-02-23T06:13:59;93514.34;;;9.77;77.32
12789;BME280;6458;42.710;23.192;2024-02-23T06:16:26;93521.00;;;10.00;77.12
12789;BME280;6458;42.710;23.192;2024-02-23T06:18:53;93522.06;;;10.13;75.67
12789;BME280;6458;42.710;23.192;2024-02-23T06:21:20;93524.09;;;10.24;74.83
12789;BME280;6458;42.710;23.192;2024-02-23T06:23:47;93528.16;;;10.29;74.89
12789;BME280;6458;42.710;23.192;2024-02-23T06:26:14;93525.78;;;10.25;72.70
12789;BME280;6458;42.710;23.192;2024-02-23T06:28:42;93526.84;;;10.20;73.47
12789;BME280;6458;42.710;23.192;2024-02-23T06:31:10;93534.56;;;10.39;74.55
12789;BME280;6458;42.710;23.192;2024-02-23T06:33:37;93537.53;;;10.32;68.92
12789;BME280;6458;42.710;23.192;2024-02-23T06:36:06;93541.84;;;10.14;69.95
12789;BME280;6458;42.710;23.192;2024-02-23T06:38:33;93539.34;;;9.95;70.56
12789;BME280;6458;42.710;23.192;2024-02-23T06:41:00;93524.91;;;10.59;72.32
12789;BME280;6458;42.710;23.192;2024-02-23T06:43:27;93545.75;;;10.57;71.88
12789;BME280;6458;42.710;23.192;2024-02-23T06:45:56;93545.06;;;11.03;66.99
12789;BME280;6458;42.710;23.192;2024-02-23T06:48:25;93554.06;;;11.13;68.63
12789;BME280;6458;42.710;23.192;2024-02-23T06:50:51;93559.47;;;11.08;68.25
12789;BME280;6458;42.710;23.192;2024-02-23T06:53:18;93541.47;;;11.05;69.38
12789;BME280;6458;42.710;23.192;2024-02-23T06:55:45;93554.13;;;11.11;64.08
12789;BME280;6458;42.710;23.192;2024-02-23T06:58:12;93561.78;;;11.30;63.34
12789;BME280;6458;42.710;23.192;2024-02-23T07:00:40;93551.97;;;11.67;66.09
12789;BME280;6458;42.710;23.192;2024-02-23T07:03:07;93558.00;;;11.52;61.10
12789;BME280;6458;42.710;23.192;2024-02-23T07:05:35;93557.41;;;11.63;60.96
12789;BME280;6458;42.710;23.192;2024-02-23T07:08:03;93541.72;;;11.80;60.44
12789;BME280;6458;42.710;23.192;2024-02-23T07:10:30;93530.47;;;11.95;62.92
12789;BME280;6458;42.710;23.192;2024-02-23T07:12:58;93538.25;;;12.25;63.45
12789;BME280;6458;42.710;23.192;2024-02-23T07:15:27;93534.19;;;12.36;61.83
12789;BME280;6458;42.710;23.192;2024-02-23T07:17:55;93536.78;;;12.21;60.35
12789;BME280;6458;42.710;23.192;2024-02-23T07:20:22;93535.25;;;11.71;60.36
12789;BME280;6458;42.710;23.192;2024-02-23T07:22:50;93550.44;;;11.63;60.49
12789;BME280;6458;42.710;23.192;2024-02-23T07:25:18;93555.56;;;11.33;61.99
12789;BME280;6458;42.710;23.192;2024-02-23T07:27:46;93543.50;;;11.64;61.05
12789;BME280;6458;42.710;23.192;2024-02-23T07:30:14;93546.69;;;11.53;60.61
12789;BME280;6458;42.710;23.192;2024-02-23T07:32:42;93547.00;;;11.47;61.66
12789;BME280;6458;42.710;23.192;2024-02-23T07:35:09;93551.50;;;12.06;59.39
12789;BME280;6458;42.710;23.192;2024-02-23T07:37:36;93540.59;;;12.00;56.93
12789;BME280;6458;42.710;23.192;2024-02-23T07:40:06;93535.69;;;11.79;58.16
12789;BME280;6458;42.710;23.192;2024-02-23T07:42:33;93544.50;;;11.93;58.78
12789;BME280;6458;42.710;23.192;2024-02-23T07:45:03;93535.41;;;12.44;57.38
12789;BME280;6458;42.710;23.192;2024-02-23T07:47:33;93534.66;;;12.28;57.56
12789;BME280;6458;42.710;23.192;2024-02-23T07:50:00;93527.53;;;12.89;56.66
12789;BME280;6458;42.710;23.192;2024-02-23T07:52:27;93545.03;;;12.58;56.36
12789;BME280;6458;42.710;23.192;2024-02-23T07:54:54;93546.09;;;11.95;59.12
12789;BME280;6458;42.710;23.192;2024-02-23T07:57:23;93537.06;;;12.31;57.47
12789;BME280;6458;42.710;23.192;2024-02-23T07:59:50;93548.72;;;12.10;58.93
12789;BME280;6458;42.710;23.192;2024-02-23T08:02:17;93543.69;;;12.37;56.95
12789;BME280;6458;42.710;23.192;2024-02-23T08:04:44;93551.16;;;12.86;56.91
12789;BME280;6458;42.710;23.192;2024-02-23T08:07:13;93538.91;;;12.88;56.11
12789;BME280;6458;42.710;23.192;2024-02-23T08:09:40;93534.97;;;13.38;54.71
12789;BME280;6458;42.710;23.192;2024-02-23T08:12:07;93542.41;;;13.44;53.57
12789;BME280;6458;42.710;23.192;2024-02-23T08:14:35;93544.28;;;13.13;54.10
12789;BME280;6458;42.710;23.192;2024-02-23T08:17:03;93538.44;;;13.10;53.58
12789;BME280;6458;42.710;23.192;2024-02-23T08:19:30;93548.19;;;12.92;55.01
12789;BME280;6458;42.710;23.192;2024-02-23T08:21:57;93546.16;;;12.97;55.32
12789;BME280;6458;42.710;23.192;2024-02-23T08:24:26;93533.00;;;13.56;54.60
12789;BME280;6458;42.710;23.192;2024-02-23T08:26:53;93538.84;;;13.59;53.76
12789;BME280;6458;42.710;23.192;2024-02-23T08:29:20;93533.28;;;13.78;53.63
12789;BME280;6458;42.710;23.192;2024-02-23T08:31:49;93533.41;;;13.89;54.02
12789;BME280;6458;42.710;23.192;2024-02-23T08:34:16;93531.78;;;14.01;53.25
12789;BME280;6458;42.710;23.192;2024-02-23T08:36:43;93522.00;;;14.05;53.00
12789;BME280;6458;42.710;23.192;2024-02-23T08:39:10;93526.19;;;14.60;52.59
12789;BME280;6458;42.710;23.192;2024-02-23T08:41:38;93516.75;;;14.32;52.49
12789;BME280;6458;42.710;23.192;2024-02-23T08:44:05;93525.50;;;13.91;52.58
12789;BME280;6458;42.710;23.192;2024-02-23T08:46:32;93516.47;;;13.97;53.23
12789;BME280;6458;42.710;23.192;2024-02-23T08:49:00;93511.47;;;13.52;53.70
12789;BME280;6458;42.710;23.192;2024-02-23T08:51:27;93519.06;;;13.70;54.36
12789;BME280;6458;42.710;23.192;2024-02-23T08:53:54;93510.22;;;14.12;53.37
12789;BME280;6458;42.710;23.192;2024-02-23T08:56:22;93520.81;;;14.36;51.95
12789;BME280;6458;42.710;23.192;2024-02-23T08:58:49;93518.69;;;14.16;51.98
12789;BME280;6458;42.710;23.192;2024-02-23T09:01:16;93508.53;;;13.98;53.21
12789;BME280;6458;42.710;23.192;2024-02-23T09:03:43;93519.94;;;13.83;52.99
12789;BME280;6458;42.710;23.192;2024-02-23T09:06:12;93517.69;;;13.91;53.19
12789;BME280;6458;42.710;23.192;2024-02-23T09:08:39;93509.06;;;14.03;53.64
12789;BME280;6458;42.710;23.192;2024-02-23T09:11:06;93502.88;;;14.31;52.57
12789;BME280;6458;42.710;23.192;2024-02-23T09:13:33;93523.06;;;14.15;52.42
12789;BME280;6458;42.710;23.192;2024-02-23T09:16:00;93529.31;;;14.78;52.56
12789;BME280;6458;42.710;23.192;2024-02-23T09:18:28;93518.44;;;14.97;51.00
12789;BME280;6458;42.710;23.192;2024-02-23T09:20:55;93512.94;;;14.63;51.31
12789;BME280;6458;42.710;23.192;2024-02-23T09:23:24;93522.53;;;15.01;51.56
12789;BME280;6458;42.710;23.192;2024-02-23T09:25:51;93509.66;;;15.47;50.15
12789;BME280;6458;42.710;23.192;2024-02-23T09:28:18;93519.97;;;15.25;49.96
12789;BME280;6458;42.710;23.192;2024-02-23T09:30:44;93523.53;;;15.24;50.77
12789;BME280;6458;42.710;23.192;2024-02-23T09:33:12;93520.22;;;14.96;50.19
12789;BME280;6458;42.710;23.192;2024-02-23T09:35:39;93507.28;;;15.07;50.41
12789;BME280;6458;42.710;23.192;2024-02-23T09:38:05;93524.03;;;15.42;50.01
12789;BME280;6458;42.710;23.192;2024-02-23T09:40:34;93509.66;;;15.11;49.81
12789;BME280;6458;42.710;23.192;2024-02-23T09:43:01;93514.47;;;14.66;50.50
12789;BME280;6458;42.710;23.192;2024-02-23T09:45:30;93525.66;;;14.55;51.30
12789;BME280;6458;42.710;23.192;2024-02-23T09:47:57;93518.34;;;14.98;50.43
12789;BME280;6458;42.710;23.192;2024-02-23T09:50:24;93512.31;;;15.35;49.58
12789;BME280;6458;42.710;23.192;2024-02-23T09:52:51;93517.19;;;15.52;48.61
12789;BME280;6458;42.710;23.192;2024-02-23T09:55:18;93509.50;;;15.38;48.42
12789;BME280;6458;42.710;23.192;2024-02-23T09:57:48;93509.19;;;15.42;49.31
12789;BME280;6458;42.710;23.192;2024-02-23T10:00:20;93504.66;;;15.81;48.70
12789;BME280;6458;42.710;23.192;2024-02-23T10:02:48;93508.31;;;15.55;48.47
12789;BME280;6458;42.710;23.192;2024-02-23T10:05:17;93502.22;;;15.67;48.14
12789;BME280;6458;42.710;23.192;2024-02-23T10:07:44;93509.16;;;15.79;47.23
12789;BME280;6458;42.710;23.192;2024-02-23T10:10:12;93497.50;;;16.31;46.27
12789;BME280;6458;42.710;23.192;2024-02-23T10:12:41;93493.50;;;16.50;46.48
12789;BME280;6458;42.710;23.192;2024-02-23T10:15:10;93498.31;;;16.32;46.51
12789;BME280;6458;42.710;23.192;2024-02-23T10:17:37;93495.25;;;15.79;46.81
12789;BME280;6458;42.710;23.192;2024-02-23T10:20:06;93493.72;;;15.63;46.64
12789;BME280;6458;42.710;23.192;2024-02-23T10:22:33;93489.31;;;15.77;47.14
12789;BME280;6458;42.710;23.192;2024-02-23T10:25:00;93490.72;;;15.57;47.60
12789;BME280;6458;42.710;23.192;2024-02-23T10:27:27;93482.63;;;15.72;47.38
12789;BME280;6458;42.710;23.192;2024-02-23T10:29:54;93482.91;;;15.81;46.87
12789;BME280;6458;42.710;23.192;2024-02-23T10:32:23;93484.31;;;15.73;47.15
12789;BME280;6458;42.710;23.192;2024-02-23T10:34:52;93484.72;;;15.91;46.79
12789;BME280;6458;42.710;23.192;2024-02-23T10:37:22;93474.47;;;15.77;46.83
12789;BME280;6458;42.710;23.192;2024-02-23T10:39:54;93469.19;;;16.01;47.02
12789;BME280;6458;42.710;23.192;2024-02-23T10:42:24;93465.53;;;15.56;47.42
12789;BME280;6458;42.710;23.192;2024-02-23T10:44:54;93455.28;;;16.01;47.18
12789;BME280;6458;42.710;23.192;2024-02-23T10:47:25;93462.63;;;16.31;46.85
12789;BME280;6458;42.710;23.192;2024-02-23T10:49:52;93462.72;;;16.29;46.28
12789;BME280;6458;42.710;23.192;2024-02-23T10:52:23;93450.56;;;16.17;46.43
12789;BME280;6458;42.710;23.192;2024-02-23T10:54:52;93451.28;;;15.60;47.10
12789;BME280;6458;42.710;23.192;2024-02-23T10:57:20;93449.81;;;15.32;47.41
12789;BME280;6458;42.710;23.192;2024-02-23T10:59:48;93446.16;;;15.58;48.09
12789;BME280;6458;42.710;23.192;2024-02-23T11:02:17;93437.69;;;15.67;47.03
12789;BME280;6458;42.710;23.192;2024-02-23T11:04:48;93434.84;;;15.70;47.71
12789;BME280;6458;42.710;23.192;2024-02-23T11:07:19;93429.44;;;15.61;47.56
12789;BME280;6458;42.710;23.192;2024-02-23T11:09:49;93425.91;;;15.49;47.78
12789;BME280;6458;42.710;23.192;2024-02-23T11:12:22;93416.91;;;15.29;48.16
12789;BME280;6458;42.710;23.192;2024-02-23T11:14:51;93413.06;;;15.46;48.22
12789;BME280;6458;42.710;23.192;2024-02-23T11:17:18;93415.84;;;15.56;48.29
12789;BME280;6458;42.710;23.192;2024-02-23T11:19:49;93418.97;;;15.61;47.77
12789;BME280;6458;42.710;23.192;2024-02-23T11:22:24;93415.06;;;15.90;47.59
12789;BME280;6458;42.710;23.192;2024-02-23T11:24:51;93408.53;;;15.96;47.75
12789;BME280;6458;42.710;23.192;2024-02-23T11:27:18;93402.63;;;15.57;46.75
12789;BME280;6458;42.710;23.192;2024-02-23T11:29:46;93409.22;;;15.63;47.15
12789;BME280;6458;42.710;23.192;2024-02-23T11:32:15;93398.03;;;15.61;46.87
12789;BME280;6458;42.710;23.192;2024-02-23T11:34:55;93400.66;;;15.61;47.05
12789;BME280;6458;42.710;23.192;2024-02-23T11:37:23;93395.06;;;15.65;46.83
12789;BME280;6458;42.710;23.192;2024-02-23T11:39:50;93395.63;;;15.82;47.29
12789;BME280;6458;42.710;23.192;2024-02-23T11:42:17;93380.72;;;15.36;47.49
12789;BME280;6458;42.710;23.192;2024-02-23T11:44:47;93396.78;;;15.42;47.91
12789;BME280;6458;42.710;23.192;2024-02-23T11:47:14;93385.13;;;15.46;48.20
12789;BME280;6458;42.710;23.192;2024-02-23T11:49:42;93374.69;;;15.46;47.74
12789;BME280;6458;42.710;23.192;2024-02-23T11:52:11;93381.78;;;15.44;47.19
12789;BME280;6458;42.710;23.192;2024-02-23T11:54:38;93396.13;;;15.63;47.62
12789;BME280;6458;42.710;23.192;2024-02-23T11:57:05;93388.91;;;15.90;47.88
12789;BME280;6458;42.710;23.192;2024-02-23T11:59:32;93389.53;;;16.16;46.20
12789;BME280;6458;42.710;23.192;2024-02-23T12:01:59;93379.75;;;16.07;45.74
12789;BME280;6458;42.710;23.192;2024-02-23T12:04:26;93390.09;;;15.97;45.79
12789;BME280;6458;42.710;23.192;2024-02-23T12:06:54;93374.38;;;15.86;45.64
12789;BME280;6458;42.710;23.192;2024-02-23T12:09:23;93373.38;;;15.76;46.42
12789;BME280;6458;42.710;23.192;2024-02-23T12:11:50;93372.22;;;15.80;46.39
12789;BME280;6458;42.710;23.192;2024-02-23T12:14:17;93364.81;;;15.50;46.47
12789;BME280;6458;42.710;23.192;2024-02-23T12:16:45;93375.97;;;15.41;47.41
12789;BME280;6458;42.710;23.192;2024-02-23T12:19:12;93376.47;;;15.70;46.96
12789;BME280;6458;42.710;23.192;2024-02-23T12:21:38;93369.25;;;15.85;46.24
12789;BME280;6458;42.710;23.192;2024-02-23T12:24:06;93367.69;;;15.82;46.50
12789;BME280;6458;42.710;23.192;2024-02-23T12:26:35;93361.34;;;16.09;46.01
12789;BME280;6458;42.710;23.192;2024-02-23T12:29:02;93355.63;;;16.04;45.35
12789;BME280;6458;42.710;23.192;2024-02-23T12:31:31;93352.47;;;15.76;45.23
12789;BME280;6458;42.710;23.192;2024-02-23T12:33:59;93350.50;;;16.02;46.20
12789;BME280;6458;42.710;23.192;2024-02-23T12:36:28;93336.66;;;15.78;45.46
12789;BME280;6458;42.710;23.192;2024-02-23T12:38:56;93350.38;;;15.92;45.85
12789;BME280;6458;42.710;23.192;2024-02-23T12:41:23;93351.13;;;16.06;45.36
12789;BME280;6458;42.710;23.192;2024-02-23T12:43:51;93340.06;;;16.02;45.59
12789;BME280;6458;42.710;23.192;2024-02-23T12:46:19;93340.66;;;16.06;44.82
12789;BME280;6458;42.710;23.192;2024-02-23T12:48:46;93333.59;;;15.95;44.94
12789;BME280;6458;42.710;23.192;2024-02-23T12:51:13;93327.56;;;16.06;44.78
12789;BME280;6458;42.710;23.192;2024-02-23T12:53:41;93310.66;;;15.98;44.17
12789;BME280;6458;42.710;23.192;2024-02-23T12:58:44;93317.22;;;16.15;45.05
12789;BME280;6458;42.710;23.192;2024-02-23T13:01:13;93317.31;;;16.14;44.90
12789;BME280;6458;42.710;23.192;2024-02-23T13:03:41;93304.84;;;16.17;44.75
12789;BME280;6458;42.710;23.192;2024-02-23T13:06:17;93302.72;;;16.11;44.46
12789;BME280;6458;42.710;23.192;2024-02-23T13:08:47;93321.16;;;16.21;44.29
12789;BME280;6458;42.710;23.192;2024-02-23T13:11:18;93319.00;;;16.49;44.08